Impacts TAF Board INFO
FOR SITUATIONAL AWARENESS. NOT TO BE USED FOR FLIGHT PLANNING PURPOSES.
IDs:

KMIA - Miami Intl, FL, US

Issued at 1741 UTC 25 Feb 2017
Updated at 2046 UTC 25 Feb 2017
Potential Impact None Slight Moderate High
Time1953Z 25/21Z 25/22Z 25/23Z 26/00Z 26/01Z 26/02Z 26/03Z 26/04Z 26/05Z 26/06Z 26/07Z 26/08Z 26/09Z
Type OBS PRVL PRVL PRVL PRVL PRVL PRVL PRVL PRVL PRVL PRVL PRVL PRVL PRVL
VIS 10 >6 >6 >6 >6 >6 >6 >6 >6 >6 >6 >6 >6 >6
CIG -- -- -- -- -- -- -- -- -- -- -- -- -- --
Cover SCT SCT SCT SCT SCT SCT SCT SCT SCT SCT SCT SCT SCT SCT
FltCat VFR VFR VFR VFR VFR VFR VFR VFR VFR VFR VFR VFR VFR VFR
WX -- -- -- -- -- -- -- -- -- -- -- -- -- --
WDir VRB 200 200 200 200 200 300 300 300 300 300 300 300 300
WSpd 5 8 8 8 8 8 5 5 5 5 5 5 5 5
WGst -- -- -- -- -- -- -- -- -- -- -- -- -- --

Raw TAF
KMIA 251741Z 2518/2618 VRB03KT P6SM SCT030
  FM252000 20008KT P6SM SCT035
  FM260200 30005KT P6SM SCT050
  FM261400 03008KT P6SM SCT045


Raw METAR
KMIA 251953Z VRB05KT 10SM SCT047 29/17 A2989 RMK AO2 SLP122 T02890167
KMIA 251853Z 22009KT 10SM SCT043 29/18 A2989 RMK AO2 SLP121 T02940178
KMIA 251753Z 00000KT 10SM SCT032 28/18 A2991 RMK AO2 SLP128 T02780178 10283 20183 58009

METAR Board
Radar Display
Forecast Discussion

FOR SITUATIONAL AWARENESS. NOT TO BE USED FOR FLIGHT PLANNING PURPOSES.

Page loaded:  20:46 UTC  |   12:46 PM Pacific  |   01:46 PM Mountain  |   02:46 PM Central  |   03:46 PM Eastern

 

ADVISORIES

FORECASTS

FORECASTS

OBSERVATIONS

USER TOOLS

ABOUT US